sensor_id;sensor_type;location;lat;lon;timestamp;pressure;altitude;pressure_sealevel;temperature;humidity
5138;BME280;53959;53.626;11.410;2023-07-20T00:01:10;100636.19;;;14.90;81.46
5138;BME280;53959;53.626;11.410;2023-07-20T00:03:35;100621.75;;;14.94;81.64
5138;BME280;53959;53.626;11.410;2023-07-20T00:06:00;100620.25;;;15.07;81.07
5138;BME280;53959;53.626;11.410;2023-07-20T00:08:26;100619.81;;;14.98;80.92
5138;BME280;53959;53.626;11.410;2023-07-20T00:10:51;100609.72;;;15.04;80.70
5138;BME280;53959;53.626;11.410;2023-07-20T00:13:16;100596.53;;;15.00;80.60
5138;BME280;53959;53.626;11.410;2023-07-20T00:15:44;100605.59;;;14.97;80.39
5138;BME280;53959;53.626;11.410;2023-07-20T00:18:09;100605.94;;;14.90;80.43
5138;BME280;53959;53.626;11.410;2023-07-20T00:20:34;100607.19;;;15.01;80.14
5138;BME280;53959;53.626;11.410;2023-07-20T00:23:00;100610.66;;;14.83;80.33
5138;BME280;53959;53.626;11.410;2023-07-20T00:25:25;100617.00;;;14.80;80.38
5138;BME280;53959;53.626;11.410;2023-07-20T00:27:50;100609.94;;;14.79;80.59
5138;BME280;53959;53.626;11.410;2023-07-20T00:30:16;100610.41;;;14.69;80.60
5138;BME280;53959;53.626;11.410;2023-07-20T00:32:43;100608.34;;;14.75;80.82
5138;BME280;53959;53.626;11.410;2023-07-20T00:35:09;100624.22;;;14.58;81.27
5138;BME280;53959;53.626;11.410;2023-07-20T00:37:34;100615.00;;;14.65;81.00
5138;BME280;53959;53.626;11.410;2023-07-20T00:39:59;100618.88;;;14.36;81.64
5138;BME280;53959;53.626;11.410;2023-07-20T00:42:25;100613.16;;;14.45;81.75
5138;BME280;53959;53.626;11.410;2023-07-20T00:44:51;100615.34;;;14.36;82.02
5138;BME280;53959;53.626;11.410;2023-07-20T00:47:16;100622.31;;;14.18;82.29
5138;BME280;53959;53.626;11.410;2023-07-20T00:49:42;100613.97;;;14.25;82.50
5138;BME280;53959;53.626;11.410;2023-07-20T00:52:10;100618.66;;;14.20;82.17
5138;BME280;53959;53.626;11.410;2023-07-20T00:54:36;100613.41;;;14.19;81.93
5138;BME280;53959;53.626;11.410;2023-07-20T00:57:02;100618.09;;;14.34;82.17
5138;BME280;53959;53.626;11.410;2023-07-20T00:59:27;100611.47;;;14.22;82.01
5138;BME280;53959;53.626;11.410;2023-07-20T01:01:54;100609.28;;;14.10;82.06
5138;BME280;53959;53.626;11.410;2023-07-20T01:04:19;100624.31;;;13.91;82.84
5138;BME280;53959;53.626;11.410;2023-07-20T01:07:02;100614.16;;;14.00;82.87
5138;BME280;53959;53.626;11.410;2023-07-20T01:12:42;100613.31;;;13.98;82.67
5138;BME280;53959;53.626;11.410;2023-07-20T01:15:06;100609.25;;;13.90;82.79
5138;BME280;53959;53.626;11.410;2023-07-20T01:17:33;100604.41;;;13.77;82.74
5138;BME280;53959;53.626;11.410;2023-07-20T01:19:59;100605.94;;;13.83;82.89
5138;BME280;53959;53.626;11.410;2023-07-20T01:33:30;100604.75;;;13.90;83.22
5138;BME280;53959;53.626;11.410;2023-07-20T01:35:59;100609.84;;;13.74;83.55
5138;BME280;53959;53.626;11.410;2023-07-20T01:38:25;100611.53;;;13.77;83.53
5138;BME280;53959;53.626;11.410;2023-07-20T01:40:51;100615.53;;;13.89;83.38
5138;BME280;53959;53.626;11.410;2023-07-20T01:43:17;100610.41;;;13.82;83.37
5138;BME280;53959;53.626;11.410;2023-07-20T01:45:43;100609.66;;;13.79;83.43
5138;BME280;53959;53.626;11.410;2023-07-20T01:48:09;100612.63;;;13.71;83.49
5138;BME280;53959;53.626;11.410;2023-07-20T01:50:34;100607.50;;;13.89;83.26
5138;BME280;53959;53.626;11.410;2023-07-20T01:53:00;100604.66;;;13.93;83.04
5138;BME280;53959;53.626;11.410;2023-07-20T01:55:26;100606.13;;;13.78;83.08
5138;BME280;53959;53.626;11.410;2023-07-20T01:57:51;100597.16;;;14.03;82.82
5138;BME280;53959;53.626;11.410;2023-07-20T02:00:17;100601.47;;;14.05;82.76
5138;BME280;53959;53.626;11.410;2023-07-20T02:02:44;100593.69;;;14.21;82.22
5138;BME280;53959;53.626;11.410;2023-07-20T02:05:09;100588.88;;;13.87;82.77
5138;BME280;53959;53.626;11.410;2023-07-20T02:07:35;100603.81;;;13.91;82.95
5138;BME280;53959;53.626;11.410;2023-07-20T02:10:00;100599.66;;;14.06;82.63
5138;BME280;53959;53.626;11.410;2023-07-20T02:12:25;100602.22;;;13.87;82.92
5138;BME280;53959;53.626;11.410;2023-07-20T02:14:51;100606.69;;;13.87;82.88
5138;BME280;53959;53.626;11.410;2023-07-20T02:17:17;100608.72;;;14.02;82.83
5138;BME280;53959;53.626;11.410;2023-07-20T02:19:42;100603.06;;;13.88;82.82
5138;BME280;53959;53.626;11.410;2023-07-20T02:22:07;100604.88;;;14.09;82.44
5138;BME280;53959;53.626;11.410;2023-07-20T02:24:33;100603.59;;;13.97;82.46
5138;BME280;53959;53.626;11.410;2023-07-20T02:26:59;100596.31;;;14.01;82.20
5138;BME280;53959;53.626;11.410;2023-07-20T02:29:24;100608.47;;;14.30;82.05
5138;BME280;53959;53.626;11.410;2023-07-20T02:31:50;100606.25;;;13.97;82.16
5138;BME280;53959;53.626;11.410;2023-07-20T02:34:15;100612.13;;;14.27;82.01
5138;BME280;53959;53.626;11.410;2023-07-20T02:36:41;100616.00;;;14.20;81.72
5138;BME280;53959;53.626;11.410;2023-07-20T02:39:08;100611.31;;;14.25;81.81
5138;BME280;53959;53.626;11.410;2023-07-20T02:41:33;100617.69;;;14.01;81.98
5138;BME280;53959;53.626;11.410;2023-07-20T02:43:59;100615.53;;;14.11;82.14
5138;BME280;53959;53.626;11.410;2023-07-20T02:46:24;100614.16;;;14.22;82.07
5138;BME280;53959;53.626;11.410;2023-07-20T02:48:49;100614.50;;;14.13;82.38
5138;BME280;53959;53.626;11.410;2023-07-20T02:51:15;100616.63;;;14.05;82.23
5138;BME280;53959;53.626;11.410;2023-07-20T02:53:40;100615.31;;;14.15;82.49
5138;BME280;53959;53.626;11.410;2023-07-20T02:56:06;100613.75;;;14.09;82.41
5138;BME280;53959;53.626;11.410;2023-07-20T02:58:34;100617.25;;;13.90;83.10
5138;BME280;53959;53.626;11.410;2023-07-20T03:01:02;100602.22;;;14.09;83.03
5138;BME280;53959;53.626;11.410;2023-07-20T03:03:27;100609.03;;;14.16;82.85
5138;BME280;53959;53.626;11.410;2023-07-20T03:05:53;100618.13;;;14.12;82.68
5138;BME280;53959;53.626;11.410;2023-07-20T03:08:20;100618.34;;;14.06;82.74
5138;BME280;53959;53.626;11.410;2023-07-20T03:10:45;100622.78;;;14.07;83.06
5138;BME280;53959;53.626;11.410;2023-07-20T03:13:10;100626.69;;;13.98;83.44
5138;BME280;53959;53.626;11.410;2023-07-20T03:15:36;100628.59;;;13.95;83.53
5138;BME280;53959;53.626;11.410;2023-07-20T03:18:01;100632.03;;;14.20;83.62
5138;BME280;53959;53.626;11.410;2023-07-20T03:20:28;100628.06;;;14.08;83.67
5138;BME280;53959;53.626;11.410;2023-07-20T03:22:53;100626.13;;;14.12;83.70
5138;BME280;53959;53.626;11.410;2023-07-20T03:25:19;100627.44;;;14.02;83.98
5138;BME280;53959;53.626;11.410;2023-07-20T03:27:44;100618.34;;;14.06;84.05
5138;BME280;53959;53.626;11.410;2023-07-20T03:30:10;100628.69;;;14.15;84.15
5138;BME280;53959;53.626;11.410;2023-07-20T03:32:37;100624.84;;;14.00;83.90
5138;BME280;53959;53.626;11.410;2023-07-20T03:35:02;100627.81;;;13.93;84.34
5138;BME280;53959;53.626;11.410;2023-07-20T03:37:28;100631.03;;;14.01;84.40
5138;BME280;53959;53.626;11.410;2023-07-20T03:39:53;100639.06;;;14.01;84.35
5138;BME280;53959;53.626;11.410;2023-07-20T03:42:19;100623.56;;;14.09;84.53
5138;BME280;53959;53.626;11.410;2023-07-20T03:44:44;100633.81;;;13.98;84.52
5138;BME280;53959;53.626;11.410;2023-07-20T03:47:09;100631.53;;;13.89;84.54
5138;BME280;53959;53.626;11.410;2023-07-20T03:49:35;100631.13;;;13.76;84.92
5138;BME280;53959;53.626;11.410;2023-07-20T03:52:00;100628.78;;;13.90;85.12
5138;BME280;53959;53.626;11.410;2023-07-20T03:54:28;100625.47;;;14.07;84.78
5138;BME280;53959;53.626;11.410;2023-07-20T03:56:53;100634.75;;;13.97;84.73
5138;BME280;53959;53.626;11.410;2023-07-20T03:59:19;100629.31;;;14.00;84.88
5138;BME280;53959;53.626;11.410;2023-07-20T04:01:45;100638.53;;;14.13;84.65
5138;BME280;53959;53.626;11.410;2023-07-20T04:04:10;100639.59;;;14.31;84.42
5138;BME280;53959;53.626;11.410;2023-07-20T04:06:36;100641.63;;;14.24;84.34
5138;BME280;53959;53.626;11.410;2023-07-20T04:09:03;100645.66;;;14.14;84.45
5138;BME280;53959;53.626;11.410;2023-07-20T04:11:28;100638.53;;;14.13;84.51
5138;BME280;53959;53.626;11.410;2023-07-20T04:13:54;100640.00;;;14.22;84.33
5138;BME280;53959;53.626;11.410;2023-07-20T04:16:19;100651.84;;;14.15;84.63
5138;BME280;53959;53.626;11.410;2023-07-20T04:18:45;100647.09;;;14.21;84.63
5138;BME280;53959;53.626;11.410;2023-07-20T04:21:10;100643.84;;;14.15;84.68
5138;BME280;53959;53.626;11.410;2023-07-20T04:23:36;100657.97;;;14.39;84.39
5138;BME280;53959;53.626;11.410;2023-07-20T04:26:03;100653.19;;;14.25;84.50
5138;BME280;53959;53.626;11.410;2023-07-20T04:28:28;100653.59;;;14.16;84.64
5138;BME280;53959;53.626;11.410;2023-07-20T04:30:53;100650.03;;;14.15;84.64
5138;BME280;53959;53.626;11.410;2023-07-20T04:33:19;100655.50;;;14.34;84.54
5138;BME280;53959;53.626;11.410;2023-07-20T04:35:53;100663.72;;;14.29;84.36
5138;BME280;53959;53.626;11.410;2023-07-20T04:38:22;100656.78;;;14.46;83.99
5138;BME280;53959;53.626;11.410;2023-07-20T04:40:56;100654.44;;;14.38;83.90
5138;BME280;53959;53.626;11.410;2023-07-20T04:43:21;100661.72;;;14.56;84.12
5138;BME280;53959;53.626;11.410;2023-07-20T04:45:46;100653.78;;;14.75;83.44
5138;BME280;53959;53.626;11.410;2023-07-20T04:48:14;100652.34;;;14.67;83.46
5138;BME280;53959;53.626;11.410;2023-07-20T04:50:47;100646.97;;;14.68;83.25
5138;BME280;53959;53.626;11.410;2023-07-20T04:53:13;100651.72;;;14.82;83.26
5138;BME280;53959;53.626;11.410;2023-07-20T04:55:39;100646.78;;;14.93;82.83
5138;BME280;53959;53.626;11.410;2023-07-20T04:58:06;100647.28;;;15.01;82.35
5138;BME280;53959;53.626;11.410;2023-07-20T05:00:33;100654.63;;;14.96;82.06
5138;BME280;53959;53.626;11.410;2023-07-20T05:02:59;100647.09;;;14.86;82.36
5138;BME280;53959;53.626;11.410;2023-07-20T05:05:24;100649.63;;;15.09;82.05
5138;BME280;53959;53.626;11.410;2023-07-20T05:07:50;100648.59;;;15.12;81.63
5138;BME280;53959;53.626;11.410;2023-07-20T05:10:16;100648.75;;;14.88;81.79
5138;BME280;53959;53.626;11.410;2023-07-20T05:12:41;100652.59;;;15.22;81.29
5138;BME280;53959;53.626;11.410;2023-07-20T05:15:07;100645.34;;;15.05;81.59
5138;BME280;53959;53.626;11.410;2023-07-20T05:17:33;100645.75;;;14.96;81.70
5138;BME280;53959;53.626;11.410;2023-07-20T05:20:00;100655.38;;;15.00;81.80
5138;BME280;53959;53.626;11.410;2023-07-20T05:22:25;100665.69;;;15.09;82.13
5138;BME280;53959;53.626;11.410;2023-07-20T05:24:50;100659.69;;;15.23;81.75
5138;BME280;53959;53.626;11.410;2023-07-20T05:27:16;100662.72;;;15.15;81.57
5138;BME280;53959;53.626;11.410;2023-07-20T05:29:45;100664.84;;;15.67;81.14
5138;BME280;53959;53.626;11.410;2023-07-20T05:32:10;100667.44;;;15.29;80.47
5138;BME280;53959;53.626;11.410;2023-07-20T05:34:36;100663.47;;;15.38;80.47
5138;BME280;53959;53.626;11.410;2023-07-20T05:37:01;100671.75;;;15.13;80.14
5138;BME280;53959;53.626;11.410;2023-07-20T05:39:26;100672.38;;;15.38;79.48
5138;BME280;53959;53.626;11.410;2023-07-20T05:41:52;100662.13;;;15.48;79.63
5138;BME280;53959;53.626;11.410;2023-07-20T05:44:17;100662.78;;;15.53;79.76
5138;BME280;53959;53.626;11.410;2023-07-20T05:46:42;100664.03;;;15.46;79.36
5138;BME280;53959;53.626;11.410;2023-07-20T05:49:08;100667.47;;;15.68;79.36
5138;BME280;53959;53.626;11.410;2023-07-20T05:51:33;100656.06;;;16.01;78.61
5138;BME280;53959;53.626;11.410;2023-07-20T05:53:59;100661.25;;;15.47;78.58
5138;BME280;53959;53.626;11.410;2023-07-20T05:56:24;100662.91;;;15.31;79.14
5138;BME280;53959;53.626;11.410;2023-07-20T05:58:50;100663.09;;;16.03;78.19
5138;BME280;53959;53.626;11.410;2023-07-20T06:01:15;100662.25;;;16.20;77.47
5138;BME280;53959;53.626;11.410;2023-07-20T06:03:40;100658.09;;;16.32;77.15
5138;BME280;53959;53.626;11.410;2023-07-20T06:06:05;100663.91;;;16.59;76.08
5138;BME280;53959;53.626;11.410;2023-07-20T06:08:31;100659.72;;;16.36;75.82
5138;BME280;53959;53.626;11.410;2023-07-20T06:10:57;100654.41;;;16.35;76.00
5138;BME280;53959;53.626;11.410;2023-07-20T06:13:22;100659.34;;;16.61;75.31
5138;BME280;53959;53.626;11.410;2023-07-20T06:15:48;100650.16;;;16.31;75.21
5138;BME280;53959;53.626;11.410;2023-07-20T06:18:14;100660.53;;;16.56;74.79
5138;BME280;53959;53.626;11.410;2023-07-20T06:20:39;100649.44;;;16.27;74.21
5138;BME280;53959;53.626;11.410;2023-07-20T06:23:05;100658.88;;;16.70;74.27
5138;BME280;53959;53.626;11.410;2023-07-20T06:25:31;100644.41;;;16.38;73.00
5138;BME280;53959;53.626;11.410;2023-07-20T06:27:56;100655.81;;;16.24;73.25
5138;BME280;53959;53.626;11.410;2023-07-20T06:30:22;100648.25;;;16.15;73.02
5138;BME280;53959;53.626;11.410;2023-07-20T06:32:48;100657.38;;;16.11;73.61
5138;BME280;53959;53.626;11.410;2023-07-20T06:35:14;100651.72;;;16.17;73.56
5138;BME280;53959;53.626;11.410;2023-07-20T06:37:40;100658.53;;;16.42;73.85
5138;BME280;53959;53.626;11.410;2023-07-20T06:40:06;100652.56;;;17.06;72.50
5138;BME280;53959;53.626;11.410;2023-07-20T06:42:34;100652.03;;;16.82;71.94
5138;BME280;53959;53.626;11.410;2023-07-20T06:44:59;100655.06;;;16.57;72.54
5138;BME280;53959;53.626;11.410;2023-07-20T06:47:24;100656.97;;;16.55;72.56
5138;BME280;53959;53.626;11.410;2023-07-20T06:49:50;100658.38;;;16.62;72.49
5138;BME280;53959;53.626;11.410;2023-07-20T06:52:15;100647.34;;;16.68;71.53
5138;BME280;53959;53.626;11.410;2023-07-20T06:54:40;100652.97;;;16.98;71.27
5138;BME280;53959;53.626;11.410;2023-07-20T06:57:06;100663.44;;;17.03;70.53
5138;BME280;53959;53.626;11.410;2023-07-20T06:59:31;100650.44;;;16.95;70.13
5138;BME280;53959;53.626;11.410;2023-07-20T07:01:56;100640.47;;;17.48;69.08
5138;BME280;53959;53.626;11.410;2023-07-20T07:04:22;100646.25;;;17.89;67.02
5138;BME280;53959;53.626;11.410;2023-07-20T07:06:47;100645.53;;;18.33;65.48
5138;BME280;53959;53.626;11.410;2023-07-20T07:09:13;100635.94;;;17.33;66.72
5138;BME280;53959;53.626;11.410;2023-07-20T07:11:39;100645.44;;;17.71;66.68
5138;BME280;53959;53.626;11.410;2023-07-20T07:14:04;100639.94;;;18.06;64.19
5138;BME280;53959;53.626;11.410;2023-07-20T07:16:30;100642.94;;;18.32;62.80
5138;BME280;53959;53.626;11.410;2023-07-20T07:18:55;100653.47;;;18.51;61.40
5138;BME280;53959;53.626;11.410;2023-07-20T07:21:20;100649.47;;;18.88;60.03
5138;BME280;53959;53.626;11.410;2023-07-20T07:23:46;100643.66;;;18.50;59.13
5138;BME280;53959;53.626;11.410;2023-07-20T07:26:11;100650.81;;;18.35;59.45
5138;BME280;53959;53.626;11.410;2023-07-20T07:28:37;100646.53;;;18.47;59.99
5138;BME280;53959;53.626;11.410;2023-07-20T07:31:05;100650.03;;;18.79;59.16
5138;BME280;53959;53.626;11.410;2023-07-20T07:33:31;100647.03;;;18.53;59.18
5138;BME280;53959;53.626;11.410;2023-07-20T07:35:57;100650.91;;;18.79;58.33
5138;BME280;53959;53.626;11.410;2023-07-20T07:38:23;100650.19;;;19.20;57.30
5138;BME280;53959;53.626;11.410;2023-07-20T07:40:48;100649.16;;;19.80;56.25
5138;BME280;53959;53.626;11.410;2023-07-20T07:43:13;100650.78;;;19.25;57.08
5138;BME280;53959;53.626;11.410;2023-07-20T07:45:40;100650.81;;;18.81;57.23
5138;BME280;53959;53.626;11.410;2023-07-20T07:48:06;100646.06;;;19.00;57.83
5138;BME280;53959;53.626;11.410;2023-07-20T07:50:33;100652.81;;;19.79;55.53
5138;BME280;53959;53.626;11.410;2023-07-20T07:52:58;100654.41;;;19.96;54.40
5138;BME280;53959;53.626;11.410;2023-07-20T07:55:24;100642.69;;;20.24;53.04
5138;BME280;53959;53.626;11.410;2023-07-20T07:57:50;100642.41;;;20.68;52.61
5138;BME280;53959;53.626;11.410;2023-07-20T08:00:15;100649.75;;;20.79;52.35
5138;BME280;53959;53.626;11.410;2023-07-20T08:02:44;100652.38;;;21.06;51.60
5138;BME280;53959;53.626;11.410;2023-07-20T08:05:09;100648.97;;;20.37;52.02
5138;BME280;53959;53.626;11.410;2023-07-20T08:07:36;100659.91;;;19.51;54.67
5138;BME280;53959;53.626;11.410;2023-07-20T08:10:01;100649.22;;;19.21;55.33
5138;BME280;53959;53.626;11.410;2023-07-20T08:12:26;100661.59;;;18.95;56.21
5138;BME280;53959;53.626;11.410;2023-07-20T08:14:52;100662.81;;;18.75;55.45
5138;BME280;53959;53.626;11.410;2023-07-20T08:17:17;100657.78;;;19.85;54.14
5138;BME280;53959;53.626;11.410;2023-07-20T08:19:43;100656.75;;;21.21;50.67
5138;BME280;53959;53.626;11.410;2023-07-20T08:22:09;100655.56;;;20.60;50.92
5138;BME280;53959;53.626;11.410;2023-07-20T08:24:35;100661.50;;;21.56;50.01
5138;BME280;53959;53.626;11.410;2023-07-20T08:27:00;100663.97;;;23.16;44.60
5138;BME280;53959;53.626;11.410;2023-07-20T08:29:26;100654.34;;;21.04;47.36
5138;BME280;53959;53.626;11.410;2023-07-20T08:31:51;100663.25;;;24.58;43.09
5138;BME280;53959;53.626;11.410;2023-07-20T08:34:16;100663.47;;;21.91;47.39
5138;BME280;53959;53.626;11.410;2023-07-20T08:36:42;100676.94;;;23.46;44.60
5138;BME280;53959;53.626;11.410;2023-07-20T08:39:07;100667.22;;;22.62;46.43
5138;BME280;53959;53.626;11.410;2023-07-20T08:41:34;100665.66;;;22.94;45.64
5138;BME280;53959;53.626;11.410;2023-07-20T08:44:00;100658.69;;;21.70;49.72
5138;BME280;53959;53.626;11.410;2023-07-20T08:46:26;100662.66;;;21.01;50.28
5138;BME280;53959;53.626;11.410;2023-07-20T08:48:52;100656.28;;;21.66;47.71
5138;BME280;53959;53.626;11.410;2023-07-20T08:51:18;100658.94;;;22.28;46.05
5138;BME280;53959;53.626;11.410;2023-07-20T08:53:45;100667.88;;;22.04;46.18
5138;BME280;53959;53.626;11.410;2023-07-20T08:56:11;100654.34;;;21.17;47.40
5138;BME280;53959;53.626;11.410;2023-07-20T08:58:38;100657.50;;;20.58;48.19
5138;BME280;53959;53.626;11.410;2023-07-20T09:01:04;100659.56;;;20.54;47.83
5138;BME280;53959;53.626;11.410;2023-07-20T09:03:30;100661.94;;;20.72;46.45
5138;BME280;53959;53.626;11.410;2023-07-20T09:05:55;100658.84;;;22.53;43.01
5138;BME280;53959;53.626;11.410;2023-07-20T09:08:20;100653.91;;;25.56;36.90
5138;BME280;53959;53.626;11.410;2023-07-20T09:10:46;100656.03;;;25.83;37.61
5138;BME280;53959;53.626;11.410;2023-07-20T09:13:15;100660.47;;;24.69;39.67
5138;BME280;53959;53.626;11.410;2023-07-20T09:15:53;100667.03;;;24.67;39.54
5138;BME280;53959;53.626;11.410;2023-07-20T09:18:26;100668.94;;;26.40;36.51
5138;BME280;53959;53.626;11.410;2023-07-20T09:20:53;100665.09;;;27.95;34.72
5138;BME280;53959;53.626;11.410;2023-07-20T09:23:19;100664.25;;;28.76;32.88
5138;BME280;53959;53.626;11.410;2023-07-20T09:25:47;100661.91;;;25.78;36.35
5138;BME280;53959;53.626;11.410;2023-07-20T09:28:15;100655.66;;;24.73;38.50
5138;BME280;53959;53.626;11.410;2023-07-20T09:30:41;100661.75;;;24.65;39.35
5138;BME280;53959;53.626;11.410;2023-07-20T09:33:18;100661.00;;;22.72;41.85
5138;BME280;53959;53.626;11.410;2023-07-20T09:35:43;100666.13;;;21.16;45.12
5138;BME280;53959;53.626;11.410;2023-07-20T09:38:08;100661.19;;;21.35;45.27
5138;BME280;53959;53.626;11.410;2023-07-20T09:40:37;100659.69;;;20.66;46.74
5138;BME280;53959;53.626;11.410;2023-07-20T09:43:07;100668.66;;;24.26;40.41
5138;BME280;53959;53.626;11.410;2023-07-20T09:45:34;100666.81;;;25.94;37.65
5138;BME280;53959;53.626;11.410;2023-07-20T09:48:08;100662.69;;;22.97;40.94
5138;BME280;53959;53.626;11.410;2023-07-20T09:50:39;100660.31;;;22.58;41.92
5138;BME280;53959;53.626;11.410;2023-07-20T09:53:06;100654.56;;;22.97;41.63
5138;BME280;53959;53.626;11.410;2023-07-20T09:55:33;100669.50;;;22.79;41.37
5138;BME280;53959;53.626;11.410;2023-07-20T09:58:00;100651.19;;;22.11;43.05
5138;BME280;53959;53.626;11.410;2023-07-20T10:00:25;100655.66;;;21.49;44.17
5138;BME280;53959;53.626;11.410;2023-07-20T10:02:51;100667.81;;;21.80;44.08
5138;BME280;53959;53.626;11.410;2023-07-20T10:05:17;100651.75;;;22.40;39.73
5138;BME280;53959;53.626;11.410;2023-07-20T10:07:47;100655.25;;;21.55;40.96
5138;BME280;53959;53.626;11.410;2023-07-20T10:10:14;100667.84;;;21.17;42.96
5138;BME280;53959;53.626;11.410;2023-07-20T10:12:41;100654.03;;;20.56;45.59
5138;BME280;53959;53.626;11.410;2023-07-20T10:20:27;100660.94;;;20.06;47.83
5138;BME280;53959;53.626;11.410;2023-07-20T10:22:53;100658.78;;;20.11;48.58
5138;BME280;53959;53.626;11.410;2023-07-20T10:25:22;100647.66;;;20.30;48.93
5138;BME280;53959;53.626;11.410;2023-07-20T10:27:48;100647.47;;;21.38;46.07
5138;BME280;53959;53.626;11.410;2023-07-20T10:30:13;100659.56;;;24.05;41.57
5138;BME280;53959;53.626;11.410;2023-07-20T10:32:40;100653.06;;;21.61;44.36
5138;BME280;53959;53.626;11.410;2023-07-20T10:35:16;100656.75;;;21.96;43.00
5138;BME280;53959;53.626;11.410;2023-07-20T10:37:49;100649.59;;;21.58;43.74
5138;BME280;53959;53.626;11.410;2023-07-20T10:42:50;100655.16;;;22.54;42.24
5138;BME280;53959;53.626;11.410;2023-07-20T10:45:17;100654.59;;;22.38;41.52
5138;BME280;53959;53.626;11.410;2023-07-20T10:47:46;100642.19;;;21.37;43.88
5138;BME280;53959;53.626;11.410;2023-07-20T10:50:12;100652.66;;;20.63;45.10
5138;BME280;53959;53.626;11.410;2023-07-20T10:52:40;100644.91;;;20.44;46.26
5138;BME280;53959;53.626;11.410;2023-07-20T10:55:16;100651.66;;;21.68;44.47
5138;BME280;53959;53.626;11.410;2023-07-20T10:57:42;100637.81;;;22.92;41.29
5138;BME280;53959;53.626;11.410;2023-07-20T11:00:11;100639.25;;;22.26;41.07
5138;BME280;53959;53.626;11.410;2023-07-20T11:02:47;100642.75;;;22.15;41.03
5138;BME280;53959;53.626;11.410;2023-07-20T11:05:32;100650.38;;;21.97;41.22
5138;BME280;53959;53.626;11.410;2023-07-20T11:07:59;100642.47;;;21.57;42.04
5138;BME280;53959;53.626;11.410;2023-07-20T11:10:24;100645.25;;;22.05;42.69
5138;BME280;53959;53.626;11.410;2023-07-20T11:13:21;100640.69;;;22.43;41.44
5138;BME280;53959;53.626;11.410;2023-07-20T11:16:08;100656.97;;;21.56;44.80
5138;BME280;53959;53.626;11.410;2023-07-20T11:18:34;100657.06;;;21.29;44.48
5138;BME280;53959;53.626;11.410;2023-07-20T11:21:07;100654.44;;;21.02;45.31
5138;BME280;53959;53.626;11.410;2023-07-20T11:23:33;100670.34;;;20.54;45.91
5138;BME280;53959;53.626;11.410;2023-07-20T11:25:59;100685.06;;;19.66;50.81
5138;BME280;53959;53.626;11.410;2023-07-20T11:28:25;100697.69;;;18.77;54.69
5138;BME280;53959;53.626;11.410;2023-07-20T11:30:52;100696.66;;;18.63;57.10
5138;BME280;53959;53.626;11.410;2023-07-20T11:33:19;100694.78;;;18.34;59.56
5138;BME280;53959;53.626;11.410;2023-07-20T11:35:45;100707.44;;;18.00;61.72
5138;BME280;53959;53.626;11.410;2023-07-20T11:38:16;100688.44;;;17.71;63.29
5138;BME280;53959;53.626;11.410;2023-07-20T11:40:45;100695.94;;;17.98;63.84
5138;BME280;53959;53.626;11.410;2023-07-20T11:43:14;100696.97;;;17.80;62.94
5138;BME280;53959;53.626;11.410;2023-07-20T11:45:39;100690.47;;;17.84;62.65
5138;BME280;53959;53.626;11.410;2023-07-20T11:48:05;100689.16;;;18.23;63.10
5138;BME280;53959;53.626;11.410;2023-07-20T11:50:30;100681.81;;;19.16;62.30
5138;BME280;53959;53.626;11.410;2023-07-20T11:52:56;100691.91;;;19.13;61.27
5138;BME280;53959;53.626;11.410;2023-07-20T11:55:22;100687.03;;;19.20;61.00
5138;BME280;53959;53.626;11.410;2023-07-20T11:58:06;100680.34;;;19.70;60.13
5138;BME280;53959;53.626;11.410;2023-07-20T12:00:33;100678.75;;;20.08;58.50
5138;BME280;53959;53.626;11.410;2023-07-20T12:02:59;100673.44;;;20.34;55.18
5138;BME280;53959;53.626;11.410;2023-07-20T12:05:25;100671.53;;;20.50;53.87
5138;BME280;53959;53.626;11.410;2023-07-20T12:07:54;100671.53;;;20.63;53.03
5138;BME280;53959;53.626;11.410;2023-07-20T12:10:27;100686.72;;;20.10;53.70
5138;BME280;53959;53.626;11.410;2023-07-20T12:12:54;100710.88;;;18.81;56.68
5138;BME280;53959;53.626;11.410;2023-07-20T12:15:23;100713.38;;;17.73;61.54
5138;BME280;53959;53.626;11.410;2023-07-20T12:17:51;100735.56;;;17.44;66.38
5138;BME280;53959;53.626;11.410;2023-07-20T12:20:33;100722.16;;;16.74;70.42
5138;BME280;53959;53.626;11.410;2023-07-20T12:23:08;100719.81;;;16.86;71.07
5138;BME280;53959;53.626;11.410;2023-07-20T12:25:45;100723.09;;;16.73;70.59
5138;BME280;53959;53.626;11.410;2023-07-20T12:28:12;100715.34;;;16.67;69.27
5138;BME280;53959;53.626;11.410;2023-07-20T12:30:38;100709.81;;;17.40;68.34
5138;BME280;53959;53.626;11.410;2023-07-20T12:33:04;100704.25;;;17.27;67.79
5138;BME280;53959;53.626;11.410;2023-07-20T12:35:30;100714.44;;;18.50;66.83
5138;BME280;53959;53.626;11.410;2023-07-20T12:37:56;100711.41;;;19.02;66.08
5138;BME280;53959;53.626;11.410;2023-07-20T12:40:22;100707.91;;;18.86;64.58
5138;BME280;53959;53.626;11.410;2023-07-20T12:42:47;100707.84;;;18.72;64.24
5138;BME280;53959;53.626;11.410;2023-07-20T12:45:13;100706.28;;;18.67;65.44
5138;BME280;53959;53.626;11.410;2023-07-20T12:47:39;100714.72;;;17.82;64.53
5138;BME280;53959;53.626;11.410;2023-07-20T12:50:06;100719.50;;;18.09;64.24
5138;BME280;53959;53.626;11.410;2023-07-20T12:52:32;100714.47;;;17.36;62.92
5138;BME280;53959;53.626;11.410;2023-07-20T12:54:57;100716.09;;;17.56;63.04
5138;BME280;53959;53.626;11.410;2023-07-20T12:57:24;100723.97;;;17.26;62.30
5138;BME280;53959;53.626;11.410;2023-07-20T12:59:49;100727.59;;;17.25;63.24
5138;BME280;53959;53.626;11.410;2023-07-20T13:02:14;100716.66;;;17.12;63.30
5138;BME280;53959;53.626;11.410;2023-07-20T13:04:40;100714.72;;;17.49;63.07
5138;BME280;53959;53.626;11.410;2023-07-20T13:07:09;100708.91;;;17.90;62.12
5138;BME280;53959;53.626;11.410;2023-07-20T13:09:35;100711.78;;;18.18;61.99